Mont Saint Michel — FNMT — position and weather

sailwx.info

Track history (hours):
 
Tides and Currents Weather Stations Pressure Air Temp Water Temp Dewpoint Dewpoint Depression Visibility Wind Speed Wind Dir Waves Ship Positions

Mont Saint Michel

Last reported at 2017-Aug-18 09:10 UTC. Time now 2017-Aug-18 10:51 UTC.
Position N 50°20' W 000°48'.

Length 173 m; beam 29 m.

Type: Ship. MMSI: 227023100.

Date/timePositionNaut miles runAvg speedWind from/ knotsBaromVisibWave heightAir tempDewpointWater temp
2017-Aug-18 09:10N 50°20' W 000°48'420.5
2017-Aug-18 08:59N 50°24' W 000°50'1020.2
2017-Aug-18 08:31N 50°33' W 000°55'1019.7
2017-Aug-18 08:01N 50°42' W 001°01'714.9
2017-Aug-18 07:30N 50°48' W 001°07'1 1.8
2017-Aug-18 07:00N 50°49' W 001°06'0 0.0
2017-Aug-18 06:30N 50°49' W 001°06'0 0.0
2017-Aug-18 06:00N 50°49' W 001°06'0 0.1
2017-Aug-18 05:30N 50°49' W 001°06'510.5
2017-Aug-18 05:01N 50°44' W 001°03'917.0
2017-Aug-18 04:30N 50°37' W 000°55'510.6
2017-Aug-18 04:00N 50°32' W 000°53'510.5
2017-Aug-18 03:30N 50°27' W 000°51'610.9
2017-Aug-18 03:00N 50°21' W 000°48'4211.3
2017-Aug-17 23:18N 49°42' W 000°26'311.8
2017-Aug-17 23:00N 49°39' W 000°24'711.4
2017-Aug-17 22:22N 49°32' W 000°20'411.4
2017-Aug-17 22:00N 49°28' W 000°18'511.0
2017-Aug-17 21:30N 49°23' W 000°16'611.1
2017-Aug-17 21:00N 49°18' W 000°15'0 0.5
2017-Aug-17 20:29N 49°17' W 000°15'0 0.0
2017-Aug-17 19:59N 49°17' W 000°15'0 0.0
2017-Aug-17 19:29N 49°17' W 000°15'2 3.5
2017-Aug-17 19:00N 49°19' W 000°15'1019.8
2017-Aug-17 18:29N 49°29' W 000°18'2719.0
2017-Aug-17 17:04N 49°54' W 000°33'118.9
2017-Aug-17 17:00N 49°55' W 000°34'1518.7
2017-Aug-17 16:12N 50°09' W 000°41'818.6
2017-Aug-17 15:48N 50°17' W 000°46'618.7
2017-Aug-17 15:28N 50°22' W 000°49'818.6
2017-Aug-17 15:01N 50°30' W 000°53'918.9
2017-Aug-17 14:30N 50°39' W 000°58'917.0
2017-Aug-17 14:00N 50°46' W 001°06'2 4.4
2017-Aug-17 13:28N 50°49' W 001°06'0 0.0
2017-Aug-17 12:58N 50°49' W 001°06'0 0.0
2017-Aug-17 12:28N 50°49' W 001°06'0 0.2
2017-Aug-17 12:00N 50°49' W 001°06'510.5
2017-Aug-17 11:30N 50°44' W 001°03'917.2
2017-Aug-17 11:00N 50°36' W 000°57'1020.2
2017-Aug-17 10:30N 50°27' W 000°51'3620.0
2017-Aug-17 08:42N 49°53' W 000°31'519.2
2017-Aug-17 08:26N 49°48' W 000°28'819.4
2017-Aug-17 08:00N 49°40' W 000°23'1119.2
2017-Aug-17 07:27N 49°30' W 000°19'819.0
2017-Aug-17 07:00N 49°22' W 000°15'5 9.0
2017-Aug-17 06:29N 49°17' W 000°15'0 0.0
2017-Aug-17 05:59N 49°17' W 000°15'0 0.0
2017-Aug-17 05:29N 49°17' W 000°15'0 0.0
2017-Aug-17 04:59N 49°17' W 000°15'0 0.2
2017-Aug-17 04:31N 49°17' W 000°15'714.7
2017-Aug-17 04:00N 49°25' W 000°16'3412.3
2017-Aug-17 01:15N 49°56' W 000°35'411.9
2017-Aug-17 00:53N 50°00' W 000°38'1411.7
2017-Aug-16 23:40N 50°13' W 000°46'714.5
2017-Aug-16 23:11N 50°20' W 000°50'315.8
2017-Aug-16 23:00N 50°22' W 000°52'815.8
2017-Aug-16 22:30N 50°30' W 000°54'815.6
2017-Aug-16 22:00N 50°38' W 000°58'917.1
2017-Aug-16 21:30N 50°45' W 001°05'4 7.8
2017-Aug-16 21:00N 50°49' W 001°06'0 0.0
2017-Aug-16 20:30N 50°49' W 001°06'0 0.0
2017-Aug-16 20:00N 50°49' W 001°06'0 0.0
2017-Aug-16 19:30N 50°49' W 001°06'0 0.0
2017-Aug-16 19:01N 50°49' W 001°06'0 0.0
2017-Aug-16 18:31N 50°49' W 001°06'0 0.0
2017-Aug-16 18:00N 50°49' W 001°06'2 5.0
2017-Aug-16 17:31N 50°46' W 001°06'918.7
2017-Aug-16 17:00N 50°38' W 000°59'918.2
2017-Aug-16 16:30N 50°29' W 000°54'917.9
2017-Aug-16 16:00N 50°21' W 000°49'917.8
2017-Aug-16 15:30N 50°13' W 000°44'917.9
2017-Aug-16 15:00N 50°04' W 000°39'917.8
2017-Aug-16 14:30N 49°56' W 000°34'917.8
2017-Aug-16 14:00N 49°48' W 000°29'917.7
2017-Aug-16 13:30N 49°39' W 000°24'917.7
2017-Aug-16 13:00N 49°31' W 000°19'917.7
2017-Aug-16 12:30N 49°23' W 000°15'510.6
2017-Aug-16 12:00N 49°17' W 000°15'0 0.0
2017-Aug-16 11:30N 49°17' W 000°15'0 0.0
2017-Aug-16 11:00N 49°17' W 000°15'0 0.0
2017-Aug-16 10:30N 49°17' W 000°15'0 0.0
2017-Aug-16 10:01N 49°17' W 000°15'0 0.0
2017-Aug-16 09:31N 49°17' W 000°15'0 0.0
2017-Aug-16 09:01N 49°17' W 000°15'0 0.0
2017-Aug-16 08:30N 49°17' W 000°15'0 0.0
2017-Aug-16 08:01N 49°17' W 000°15'0 0.0
2017-Aug-16 07:30N 49°17' W 000°15'0 0.0
2017-Aug-16 07:01N 49°17' W 000°15'0 0.0
2017-Aug-16 06:30N 49°17' W 000°15'0 0.0
2017-Aug-16 06:00N 49°17' W 000°15'0 0.0
2017-Aug-16 05:31N 49°17' W 000°15'2 4.8
2017-Aug-16 05:00N 49°20' W 000°14'713.7
2017-Aug-16 04:30N 49°26' W 000°17'611.8
2017-Aug-16 03:59N 49°32' W 000°20'611.8
2017-Aug-16 03:29N 49°38' W 000°24'1712.5
2017-Aug-16 02:06N 49°53' W 000°35'115.3
2017-Aug-16 02:01N 49°55' W 000°36'815.2
2017-Aug-16 01:31N 50°02' W 000°41'815.3
2017-Aug-16 01:00N 50°09' W 000°46'714.7
2017-Aug-16 00:31N 50°15' W 000°49'714.4
2017-Aug-16 00:00N 50°23' W 000°51'714.7
2017-Aug-15 23:30N 50°30' W 000°55'714.4
2017-Aug-15 23:00N 50°37' W 000°57'714.1
2017-Aug-15 22:30N 50°43' W 001°01'612.4
2017-Aug-15 22:01N 50°48' W 001°07'1 1.7
2017-Aug-15 21:31N 50°49' W 001°06'0 0.0
2017-Aug-15 21:01N 50°49' W 001°06'0 0.0
2017-Aug-15 20:30N 50°49' W 001°06'0 0.7
2017-Aug-15 20:01N 50°49' W 001°06'510.1
2017-Aug-15 19:30N 50°44' W 001°03'918.1
2017-Aug-15 19:00N 50°35' W 000°58'918.9
2017-Aug-15 18:30N 50°26' W 000°54'918.4
2017-Aug-15 18:00N 50°18' W 000°49'918.8
2017-Aug-15 17:30N 50°09' W 000°43'918.9
2017-Aug-15 17:00N 50°00' W 000°38'2119.0
2017-Aug-15 15:54N 49°41' W 000°26'818.9
2017-Aug-15 15:30N 49°34' W 000°22'918.6
2017-Aug-15 15:00N 49°25' W 000°16'815.5
2017-Aug-15 14:30N 49°18' W 000°15'0 0.6
2017-Aug-15 14:00N 49°17' W 000°15'0 0.0
2017-Aug-15 13:30N 49°17' W 000°15'0 0.0
2017-Aug-15 13:00N 49°17' W 000°15'0 0.3
2017-Aug-15 12:30N 49°17' W 000°15'917.1
2017-Aug-15 12:00N 49°26' W 000°19'1018.8
2017-Aug-15 11:28N 49°34' W 000°27'2718.9
2017-Aug-15 10:03N 49°59' W 000°43'419.0
2017-Aug-15 09:49N 50°03' W 000°45'1119.1
2017-Aug-15 09:13N 50°14' W 000°51'419.2
2017-Aug-15 09:00N 50°18' W 000°53'1020.5
2017-Aug-15 08:30N 50°28' W 000°56'1021.0
2017-Aug-15 08:01N 50°38' W 000°59'918.1
2017-Aug-15 07:30N 50°46' W 001°06'2 4.9
2017-Aug-15 07:00N 50°49' W 001°06'0 0.0
2017-Aug-15 06:30N 50°49' W 001°06'0 0.0
2017-Aug-15 06:00N 50°49' W 001°06'0 0.1
2017-Aug-15 05:30N 50°49' W 001°06'3 6.6
2017-Aug-15 05:01N 50°45' W 001°05'714.7
2017-Aug-15 04:31N 50°39' W 000°58'714.5
2017-Aug-15 04:01N 50°33' W 000°55'714.6
2017-Aug-15 03:31N 50°26' W 000°50'714.4
2017-Aug-15 03:01N 50°19' W 000°45'815.3
2017-Aug-15 02:29N 50°12' W 000°41'815.6
2017-Aug-15 02:00N 50°05' W 000°38'612.5
2017-Aug-15 01:30N 49°59' W 000°34'510.8
2017-Aug-15 01:00N 49°54' W 000°32'510.7
2017-Aug-15 00:30N 49°49' W 000°29'510.7
2017-Aug-15 00:00N 49°44' W 000°27'611.0
2017-Aug-14 23:30N 49°38' W 000°25'610.9
2017-Aug-14 22:59N 49°33' W 000°22'511.2
2017-Aug-14 22:30N 49°28' W 000°19'611.3
2017-Aug-14 22:00N 49°23' W 000°16'510.2
2017-Aug-14 21:30N 49°18' W 000°15'0 0.5
2017-Aug-14 21:00N 49°17' W 000°15'0 0.0
2017-Aug-14 20:30N 49°17' W 000°15'0 0.0
2017-Aug-14 20:00N 49°17' W 000°15'0 0.0
2017-Aug-14 19:30N 49°17' W 000°15'3 6.2
2017-Aug-14 18:59N 49°21' W 000°15'1018.4
2017-Aug-14 18:28N 49°30' W 000°19'918.4
2017-Aug-14 18:00N 49°38' W 000°21'918.5
2017-Aug-14 17:30N 49°47' W 000°24'918.4
2017-Aug-14 17:01N 49°56' W 000°29'918.4
2017-Aug-14 16:30N 50°04' W 000°34'1019.0
2017-Aug-14 16:00N 50°13' W 000°40'1020.5
2017-Aug-14 15:30N 50°22' W 000°48'1020.7
2017-Aug-14 15:00N 50°31' W 000°55'1019.7
2017-Aug-14 14:30N 50°40' W 000°60'816.6
2017-Aug-14 14:00N 50°48' W 001°07'1 2.4
2017-Aug-14 13:30N 50°49' W 001°06'0 0.0
2017-Aug-14 13:00N 50°49' W 001°06'0 0.0
2017-Aug-14 12:30N 50°49' W 001°06'0 0.3
2017-Aug-14 12:00N 50°49' W 001°06'4 8.7
2017-Aug-14 11:30N 50°44' W 001°04'816.3
2017-Aug-14 11:00N 50°37' W 000°58'918.2
2017-Aug-14 10:30N 50°28' W 000°55'919.0
2017-Aug-14 10:01N 50°19' W 000°52'1019.3
2017-Aug-14 09:30N 50°10' W 000°48'1019.5
2017-Aug-14 09:00N 50°01' W 000°43'1220.5
2017-Aug-14 08:25N 49°49' W 000°36'921.6
2017-Aug-14 07:59N 49°41' W 000°30'1221.4
2017-Aug-14 07:26N 49°30' W 000°22'921.5
2017-Aug-14 07:00N 49°22' W 000°16'5 9.9
2017-Aug-14 06:31N 49°17' W 000°15'0 0.0
2017-Aug-14 06:01N 49°17' W 000°15'0 0.0
2017-Aug-14 05:31N 49°17' W 000°15'0 0.0
2017-Aug-14 05:00N 49°17' W 000°15'0 0.2
2017-Aug-14 04:30N 49°17' W 000°15'814.1
2017-Aug-14 03:54N 49°26' W 000°16'615.2
2017-Aug-14 03:30N 49°31' W 000°20'814.9
2017-Aug-14 02:59N 49°39' W 000°23'715.3
2017-Aug-14 02:30N 49°46' W 000°26'815.7
2017-Aug-14 02:00N 49°53' W 000°31'815.9
2017-Aug-14 01:31N 50°00' W 000°35'816.1
2017-Aug-14 01:01N 50°08' W 000°39'816.1
2017-Aug-14 00:31N 50°16' W 000°44'815.9
2017-Aug-14 00:01N 50°23' W 000°48'816.0
2017-Aug-13 23:31N 50°31' W 000°52'816.3
2017-Aug-13 23:01N 50°38' W 000°57'714.3
2017-Aug-13 22:31N 50°44' W 001°04'510.0
2017-Aug-13 22:01N 50°49' W 001°06'0 0.4
2017-Aug-13 21:31N 50°49' W 001°06'0 0.0
2017-Aug-13 21:01N 50°49' W 001°06'0 0.0
2017-Aug-13 20:30N 50°49' W 001°06'0 0.4
2017-Aug-13 20:01N 50°49' W 001°06'510.7
2017-Aug-13 19:30N 50°44' W 001°03'816.1
2017-Aug-13 19:01N 50°37' W 000°57'1019.0
2017-Aug-13 18:30N 50°28' W 000°52'919.0
2017-Aug-13 18:00N 50°19' W 000°47'1019.8
2017-Aug-13 17:30N 50°10' W 000°40'1019.7
2017-Aug-13 17:01N 50°01' W 000°34'1019.7
2017-Aug-13 16:30N 49°51' W 000°30'1019.8
2017-Aug-13 15:59N 49°41' W 000°25'1019.5
2017-Aug-13 15:30N 49°33' W 000°19'919.0
2017-Aug-13 15:00N 49°24' W 000°15'713.1
2017-Aug-13 14:30N 49°17' W 000°15'0 0.0
2017-Aug-13 14:00N 49°17' W 000°15'0 0.0
2017-Aug-13 13:30N 49°17' W 000°15'0 0.0
2017-Aug-13 13:00N 49°17' W 000°15'2 3.4
2017-Aug-13 12:23N 49°19' W 000°15'719.1
2017-Aug-13 12:00N 49°27' W 000°17'4719.7
2017-Aug-13 09:36N 50°10' W 000°45'319.9
2017-Aug-13 09:28N 50°13' W 000°47'919.7
2017-Aug-13 09:00N 50°21' W 000°52'1020.8
2017-Aug-13 08:31N 50°31' W 000°57'1020.4
2017-Aug-13 08:00N 50°41' W 000°58'816.6
2017-Aug-13 07:31N 50°47' W 001°07'2 3.0
2017-Aug-13 07:01N 50°49' W 001°06'0 0.0
2017-Aug-13 06:31N 50°49' W 001°06'0 0.0
2017-Aug-13 06:01N 50°49' W 001°06'0 0.2
2017-Aug-13 05:31N 50°49' W 001°06'4 7.4
2017-Aug-13 05:00N 50°45' W 001°05'815.3
2017-Aug-13 04:30N 50°39' W 000°59'612.5
2017-Aug-13 04:01N 50°33' W 000°54'611.7
2017-Aug-13 03:30N 50°28' W 000°51'3214.5
2017-Aug-13 01:20N 49°59' W 000°30'310.5
2017-Aug-13 01:00N 49°56' W 000°28'510.4
2017-Aug-13 00:30N 49°51' W 000°25'510.4
2017-Aug-13 00:01N 49°46' W 000°23'510.7
2017-Aug-12 23:31N 49°41' W 000°22'510.8
2017-Aug-12 23:00N 49°35' W 000°21'510.3
2017-Aug-12 22:30N 49°30' W 000°19'5 9.9
2017-Aug-12 22:01N 49°26' W 000°16'5 9.8
2017-Aug-12 21:31N 49°21' W 000°15'3 6.8
2017-Aug-12 21:01N 49°17' W 000°15'0 0.0
2017-Aug-12 20:31N 49°17' W 000°15'0 0.0
2017-Aug-12 20:01N 49°17' W 000°15'0 0.0
2017-Aug-12 19:31N 49°17' W 000°15'2 4.8
2017-Aug-12 19:00N 49°20' W 000°14'1018.9
2017-Aug-12 18:30N 49°29' W 000°17'1020.1
2017-Aug-12 18:00N 49°39' W 000°21'4619.2
2017-Aug-12 15:36N 50°22' W 000°45'218.9
2017-Aug-12 15:31N 50°24' W 000°47'918.3
2017-Aug-12 15:01N 50°32' W 000°53'917.7
2017-Aug-12 14:30N 50°40' W 000°59'816.9
2017-Aug-12 14:00N 50°47' W 001°06'2 3.5
2017-Aug-12 13:30N 50°49' W 001°06'0 0.0
2017-Aug-12 13:01N 50°49' W 001°06'0 0.0
2017-Aug-12 12:30N 50°49' W 001°06'0 0.2
2017-Aug-12 12:00N 50°49' W 001°06'5 9.9
2017-Aug-12 11:31N 50°44' W 001°03'1019.1
2017-Aug-12 11:01N 50°36' W 000°56'1019.8
2017-Aug-12 10:30N 50°26' W 000°52'3919.8
2017-Aug-12 08:31N 49°48' W 000°34'119.9
2017-Aug-12 08:28N 49°47' W 000°33'920.2
2017-Aug-12 08:00N 49°39' W 000°27'1020.1
2017-Aug-12 07:30N 49°30' W 000°20'1020.1
2017-Aug-12 07:01N 49°21' W 000°14'3 6.6
2017-Aug-12 06:30N 49°17' W 000°15'0 0.0
2017-Aug-12 06:01N 49°17' W 000°15'0 0.0
2017-Aug-12 05:31N 49°17' W 000°15'0 0.0
2017-Aug-12 05:00N 49°17' W 000°15'0 0.1
2017-Aug-12 04:31N 49°17' W 000°15'1111.5
2017-Aug-12 03:36N 49°28' W 000°16'112.3
2017-Aug-12 03:30N 49°29' W 000°16'715.0
2017-Aug-12 03:00N 49°36' W 000°19'5115.7
2017-Aug-11 23:44N 50°25' W 000°46'415.8
2017-Aug-11 23:31N 50°28' W 000°48'816.2
2017-Aug-11 23:01N 50°35' W 000°53'815.7
2017-Aug-11 22:31N 50°42' W 000°58'816.1
2017-Aug-11 22:00N 50°48' W 001°07'1 1.8
2017-Aug-11 21:30N 50°49' W 001°06'0 0.0
2017-Aug-11 21:00N 50°49' W 001°06'0 0.0
2017-Aug-11 20:30N 50°49' W 001°06'0 0.3
2017-Aug-11 20:00N 50°49' W 001°06'611.3
2017-Aug-11 19:31N 50°44' W 001°02'917.9
2017-Aug-11 19:00N 50°36' W 000°55'918.6
2017-Aug-11 18:30N 50°27' W 000°49'4719.0
2017-Aug-11 16:01N 49°43' W 000°23'220.9
2017-Aug-11 15:57N 49°42' W 000°23'1020.8
2017-Aug-11 15:27N 49°32' W 000°18'920.0
2017-Aug-11 15:00N 49°23' W 000°14'6 6.1
2017-Aug-11 14:00N 49°17' W 000°15'0 0.0
2017-Aug-11 13:30N 49°17' W 000°15'0 0.0
2017-Aug-11 13:00N 49°17' W 000°15'3 6.2
2017-Aug-11 12:30N 49°20' W 000°14'916.8
2017-Aug-11 11:59N 49°29' W 000°18'817.0
2017-Aug-11 11:30N 49°36' W 000°22'4519.2
2017-Aug-11 09:11N 50°18' W 000°47'319.9
2017-Aug-11 09:00N 50°21' W 000°49'1019.9
2017-Aug-11 08:31N 50°31' W 000°54'1019.6
2017-Aug-11 08:01N 50°40' W 000°59'816.8
2017-Aug-11 07:31N 50°47' W 001°06'2 3.3
2017-Aug-11 07:00N 50°49' W 001°06'0 0.0
2017-Aug-11 06:30N 50°49' W 001°06'0 0.0
2017-Aug-11 06:00N 50°49' W 001°06'0 0.1
2017-Aug-11 05:30N 50°49' W 001°06'5 9.5
2017-Aug-11 05:01N 50°44' W 001°04'713.5
2017-Aug-11 04:31N 50°39' W 000°58'612.1
2017-Aug-11 04:00N 50°33' W 000°54'611.6
2017-Aug-11 03:30N 50°28' W 000°50'713.4
2017-Aug-11 03:00N 50°22' W 000°45'1116.9
2017-Aug-11 02:23N 50°12' W 000°38'716.6
2017-Aug-11 01:57N 50°05' W 000°35'612.1
2017-Aug-11 01:29N 50°00' W 000°32'611.7
2017-Aug-11 01:00N 49°55' W 000°29'611.5
2017-Aug-11 00:29N 49°49' W 000°26'511.1
2017-Aug-10 23:59N 49°44' W 000°24'511.1
2017-Aug-10 23:30N 49°39' W 000°22'611.1
2017-Aug-10 22:58N 49°33' W 000°20'510.8
2017-Aug-10 22:30N 49°28' W 000°18'510.5
2017-Aug-10 22:00N 49°23' W 000°16'511.0
2017-Aug-10 21:30N 49°18' W 000°15'0 0.5
2017-Aug-10 21:00N 49°17' W 000°15'0 0.0
2017-Aug-10 20:30N 49°17' W 000°15'0 0.0
2017-Aug-10 20:00N 49°17' W 000°15'0 0.0
2017-Aug-10 19:30N 49°17' W 000°15'2 4.6
2017-Aug-10 19:00N 49°20' W 000°14'1019.1
2017-Aug-10 18:30N 49°29' W 000°19'1120.3
2017-Aug-10 17:59N 49°38' W 000°26'2019.7
2017-Aug-10 16:58N 49°56' W 000°40'817.7
2017-Aug-10 16:30N 50°04' W 000°45'2018.4
2017-Aug-10 15:25N 50°23' W 000°53'820.1
2017-Aug-10 15:00N 50°31' W 000°55'1020.0
2017-Aug-10 14:30N 50°41' W 001°00'816.4
2017-Aug-10 14:00N 50°48' W 001°07'1 2.2
2017-Aug-10 13:31N 50°49' W 001°06'0 0.0
2017-Aug-10 13:00N 50°49' W 001°06'0 0.0
2017-Aug-10 12:31N 50°49' W 001°06'1 1.7
2017-Aug-10 12:00N 50°48' W 001°07'815.0
2017-Aug-10 11:31N 50°42' W 001°01'1019.8
2017-Aug-10 11:00N 50°32' W 000°55'1019.6
2017-Aug-10 10:29N 50°23' W 000°49'3519.0
2017-Aug-10 08:39N 49°50' W 000°32'518.2
2017-Aug-10 08:21N 49°44' W 000°29'618.2
2017-Aug-10 08:01N 49°39' W 000°25'918.3
2017-Aug-10 07:29N 49°30' W 000°20'918.9
2017-Aug-10 07:00N 49°22' W 000°15'4 8.3
2017-Aug-10 06:30N 49°17' W 000°15'0 0.0
2017-Aug-10 06:01N 49°17' W 000°15'0 0.0
2017-Aug-10 05:30N 49°17' W 000°15'0 0.0
2017-Aug-10 05:01N 49°17' W 000°15'0 0.3
2017-Aug-10 04:30N 49°17' W 000°15'713.8
2017-Aug-10 04:00N 49°24' W 000°16'714.9
2017-Aug-10 03:30N 49°31' W 000°20'612.1
2017-Aug-10 03:00N 49°37' W 000°23'510.1
2017-Aug-10 02:30N 49°42' W 000°26'610.3
2017-Aug-10 01:55N 49°48' W 000°28'3813.6
2017-Aug-09 23:09N 50°23' W 000°47'216.3
2017-Aug-09 23:00N 50°25' W 000°48'816.7
2017-Aug-09 22:30N 50°33' W 000°54'816.3
2017-Aug-09 22:01N 50°41' W 000°58'613.0
2017-Aug-09 21:30N 50°45' W 001°05'3 6.7
2017-Aug-09 21:00N 50°49' W 001°06'0 0.0
2017-Aug-09 20:30N 50°49' W 001°06'0 0.0
2017-Aug-09 20:00N 50°49' W 001°06'0 0.0
2017-Aug-09 19:30N 50°49' W 001°06'0 0.0
2017-Aug-09 19:01N 50°49' W 001°06'0 0.0
2017-Aug-09 18:30N 50°49' W 001°06'0 1.0
2017-Aug-09 18:01N 50°49' W 001°07'612.4
2017-Aug-09 17:30N 50°43' W 001°01'816.7
2017-Aug-09 17:01N 50°35' W 000°58'917.9
2017-Aug-09 16:31N 50°27' W 000°53'4816.9
2017-Aug-09 13:38N 49°42' W 000°24'416.4
2017-Aug-09 13:25N 49°39' W 000°22'1016.1
2017-Aug-09 12:49N 49°29' W 000°19'515.7
2017-Aug-09 12:30N 49°25' W 000°17'714.7
2017-Aug-09 12:01N 49°18' W 000°15'0 0.4
2017-Aug-09 11:31N 49°17' W 000°15'0 0.0
2017-Aug-09 11:01N 49°17' W 000°15'0 0.0
2017-Aug-09 10:30N 49°17' W 000°15'0 0.0
2017-Aug-09 10:01N 49°17' W 000°15'0 0.0
2017-Aug-09 09:31N 49°17' W 000°15'0 0.0
2017-Aug-09 09:01N 49°17' W 000°15'0 0.0
2017-Aug-09 08:31N 49°17' W 000°15'0 0.0
2017-Aug-09 08:01N 49°17' W 000°15'0 0.0
2017-Aug-09 07:31N 49°17' W 000°15'0 0.0
2017-Aug-09 07:01N 49°17' W 000°15'0 0.0
2017-Aug-09 06:30N 49°17' W 000°15'0 0.0
2017-Aug-09 06:01N 49°17' W 000°15'0 0.0
2017-Aug-09 05:30N 49°17' W 000°15'2 3.9
2017-Aug-09 05:00N 49°19' W 000°15'711.9
2017-Aug-09 04:25N 49°26' W 000°16'511.2
2017-Aug-09 04:01N 49°31' W 000°18'714.6
2017-Aug-09 03:30N 49°37' W 000°23'4514.3
2017-Aug-09 00:20N 50°20' W 000°48'515.4
2017-Aug-09 00:00N 50°25' W 000°51'815.5
2017-Aug-08 23:30N 50°32' W 000°55'815.1
2017-Aug-08 23:01N 50°39' W 000°59'714.5
2017-Aug-08 22:30N 50°45' W 001°05'4 7.5
2017-Aug-08 22:00N 50°49' W 001°06'0 0.0
2017-Aug-08 21:30N 50°49' W 001°06'0 0.0
2017-Aug-08 21:00N 50°49' W 001°06'0 0.0
2017-Aug-08 20:30N 50°49' W 001°06'0 0.8
2017-Aug-08 20:00N 50°49' W 001°06'611.5
2017-Aug-08 19:30N 50°44' W 001°02'917.6
2017-Aug-08 19:00N 50°35' W 000°58'5718.9
2017-Aug-08 15:59N 49°41' W 000°29'919.0
2017-Aug-08 15:30N 49°33' W 000°23'1020.0
2017-Aug-08 15:00N 49°24' W 000°17'713.3
2017-Aug-08 14:30N 49°17' W 000°15'0 0.0
2017-Aug-08 14:00N 49°17' W 000°15'0 0.0
2017-Aug-08 13:30N 49°17' W 000°15'0 0.0
2017-Aug-08 13:00N 49°17' W 000°15'2 3.8
2017-Aug-08 12:30N 49°19' W 000°15'1019.9
2017-Aug-08 11:59N 49°29' W 000°18'  
Track history (hours):
 
Tides and Currents Weather Stations Pressure Air Temp Water Temp Dewpoint Dewpoint Depression Visibility Wind Speed Wind Dir Waves Ship Positions

Mont Saint Michel

Last reported at 2017-Aug-18 09:10 UTC. Time now 2017-Aug-18 10:51 UTC.
Position N 50°20' W 000°48'.

Length 173 m; beam 29 m.

Type: Ship. MMSI: 227023100.

Date/timePositionNaut miles runAvg speedWind from/ knotsBaromVisibWave heightAir tempDewpointWater temp
2017-Aug-18 09:10N 50°20' W 000°48'420.5
2017-Aug-18 08:59N 50°24' W 000°50'1020.2
2017-Aug-18 08:31N 50°33' W 000°55'1019.7
2017-Aug-18 08:01N 50°42' W 001°01'714.9
2017-Aug-18 07:30N 50°48' W 001°07'1 1.8
2017-Aug-18 07:00N 50°49' W 001°06'0 0.0
2017-Aug-18 06:30N 50°49' W 001°06'0 0.0
2017-Aug-18 06:00N 50°49' W 001°06'0 0.1
2017-Aug-18 05:30N 50°49' W 001°06'510.5
2017-Aug-18 05:01N 50°44' W 001°03'917.0
2017-Aug-18 04:30N 50°37' W 000°55'510.6
2017-Aug-18 04:00N 50°32' W 000°53'510.5
2017-Aug-18 03:30N 50°27' W 000°51'610.9
2017-Aug-18 03:00N 50°21' W 000°48'4211.3
2017-Aug-17 23:18N 49°42' W 000°26'311.8
2017-Aug-17 23:00N 49°39' W 000°24'711.4
2017-Aug-17 22:22N 49°32' W 000°20'411.4
2017-Aug-17 22:00N 49°28' W 000°18'511.0
2017-Aug-17 21:30N 49°23' W 000°16'611.1
2017-Aug-17 21:00N 49°18' W 000°15'0 0.5
2017-Aug-17 20:29N 49°17' W 000°15'0 0.0
2017-Aug-17 19:59N 49°17' W 000°15'0 0.0
2017-Aug-17 19:29N 49°17' W 000°15'2 3.5
2017-Aug-17 19:00N 49°19' W 000°15'1019.8
2017-Aug-17 18:29N 49°29' W 000°18'2719.0
2017-Aug-17 17:04N 49°54' W 000°33'118.9
2017-Aug-17 17:00N 49°55' W 000°34'1518.7
2017-Aug-17 16:12N 50°09' W 000°41'818.6
2017-Aug-17 15:48N 50°17' W 000°46'618.7
2017-Aug-17 15:28N 50°22' W 000°49'818.6
2017-Aug-17 15:01N 50°30' W 000°53'918.9
2017-Aug-17 14:30N 50°39' W 000°58'917.0
2017-Aug-17 14:00N 50°46' W 001°06'2 4.4
2017-Aug-17 13:28N 50°49' W 001°06'0 0.0
2017-Aug-17 12:58N 50°49' W 001°06'0 0.0
2017-Aug-17 12:28N 50°49' W 001°06'0 0.2
2017-Aug-17 12:00N 50°49' W 001°06'510.5
2017-Aug-17 11:30N 50°44' W 001°03'917.2
2017-Aug-17 11:00N 50°36' W 000°57'1020.2
2017-Aug-17 10:30N 50°27' W 000°51'3620.0
2017-Aug-17 08:42N 49°53' W 000°31'519.2
2017-Aug-17 08:26N 49°48' W 000°28'819.4
2017-Aug-17 08:00N 49°40' W 000°23'1119.2
2017-Aug-17 07:27N 49°30' W 000°19'819.0
2017-Aug-17 07:00N 49°22' W 000°15'5 9.0
2017-Aug-17 06:29N 49°17' W 000°15'0 0.0
2017-Aug-17 05:59N 49°17' W 000°15'0 0.0
2017-Aug-17 05:29N 49°17' W 000°15'0 0.0
2017-Aug-17 04:59N 49°17' W 000°15'0 0.2
2017-Aug-17 04:31N 49°17' W 000°15'714.7
2017-Aug-17 04:00N 49°25' W 000°16'3412.3
2017-Aug-17 01:15N 49°56' W 000°35'411.9
2017-Aug-17 00:53N 50°00' W 000°38'1411.7
2017-Aug-16 23:40N 50°13' W 000°46'714.5
2017-Aug-16 23:11N 50°20' W 000°50'315.8
2017-Aug-16 23:00N 50°22' W 000°52'815.8
2017-Aug-16 22:30N 50°30' W 000°54'815.6
2017-Aug-16 22:00N 50°38' W 000°58'917.1
2017-Aug-16 21:30N 50°45' W 001°05'4 7.8
2017-Aug-16 21:00N 50°49' W 001°06'0 0.0
2017-Aug-16 20:30N 50°49' W 001°06'0 0.0
2017-Aug-16 20:00N 50°49' W 001°06'0 0.0
2017-Aug-16 19:30N 50°49' W 001°06'0 0.0
2017-Aug-16 19:01N 50°49' W 001°06'0 0.0
2017-Aug-16 18:31N 50°49' W 001°06'0 0.0
2017-Aug-16 18:00N 50°49' W 001°06'2 5.0
2017-Aug-16 17:31N 50°46' W 001°06'918.7
2017-Aug-16 17:00N 50°38' W 000°59'918.2
2017-Aug-16 16:30N 50°29' W 000°54'917.9
2017-Aug-16 16:00N 50°21' W 000°49'917.8
2017-Aug-16 15:30N 50°13' W 000°44'917.9
2017-Aug-16 15:00N 50°04' W 000°39'917.8
2017-Aug-16 14:30N 49°56' W 000°34'917.8
2017-Aug-16 14:00N 49°48' W 000°29'917.7
2017-Aug-16 13:30N 49°39' W 000°24'917.7
2017-Aug-16 13:00N 49°31' W 000°19'917.7
2017-Aug-16 12:30N 49°23' W 000°15'510.6
2017-Aug-16 12:00N 49°17' W 000°15'0 0.0
2017-Aug-16 11:30N 49°17' W 000°15'0 0.0
2017-Aug-16 11:00N 49°17' W 000°15'0 0.0
2017-Aug-16 10:30N 49°17' W 000°15'0 0.0
2017-Aug-16 10:01N 49°17' W 000°15'0 0.0
2017-Aug-16 09:31N 49°17' W 000°15'0 0.0
2017-Aug-16 09:01N 49°17' W 000°15'0 0.0
2017-Aug-16 08:30N 49°17' W 000°15'0 0.0
2017-Aug-16 08:01N 49°17' W 000°15'0 0.0
2017-Aug-16 07:30N 49°17' W 000°15'0 0.0
2017-Aug-16 07:01N 49°17' W 000°15'0 0.0
2017-Aug-16 06:30N 49°17' W 000°15'0 0.0
2017-Aug-16 06:00N 49°17' W 000°15'0 0.0
2017-Aug-16 05:31N 49°17' W 000°15'2 4.8
2017-Aug-16 05:00N 49°20' W 000°14'713.7
2017-Aug-16 04:30N 49°26' W 000°17'611.8
2017-Aug-16 03:59N 49°32' W 000°20'611.8
2017-Aug-16 03:29N 49°38' W 000°24'1712.5
2017-Aug-16 02:06N 49°53' W 000°35'115.3
2017-Aug-16 02:01N 49°55' W 000°36'815.2
2017-Aug-16 01:31N 50°02' W 000°41'815.3
2017-Aug-16 01:00N 50°09' W 000°46'714.7
2017-Aug-16 00:31N 50°15' W 000°49'714.4
2017-Aug-16 00:00N 50°23' W 000°51'714.7
2017-Aug-15 23:30N 50°30' W 000°55'714.4
2017-Aug-15 23:00N 50°37' W 000°57'714.1
2017-Aug-15 22:30N 50°43' W 001°01'612.4
2017-Aug-15 22:01N 50°48' W 001°07'1 1.7
2017-Aug-15 21:31N 50°49' W 001°06'0 0.0
2017-Aug-15 21:01N 50°49' W 001°06'0 0.0
2017-Aug-15 20:30N 50°49' W 001°06'0 0.7
2017-Aug-15 20:01N 50°49' W 001°06'510.1
2017-Aug-15 19:30N 50°44' W 001°03'918.1
2017-Aug-15 19:00N 50°35' W 000°58'918.9
2017-Aug-15 18:30N 50°26' W 000°54'918.4
2017-Aug-15 18:00N 50°18' W 000°49'918.8
2017-Aug-15 17:30N 50°09' W 000°43'918.9
2017-Aug-15 17:00N 50°00' W 000°38'2119.0
2017-Aug-15 15:54N 49°41' W 000°26'818.9
2017-Aug-15 15:30N 49°34' W 000°22'918.6
2017-Aug-15 15:00N 49°25' W 000°16'815.5
2017-Aug-15 14:30N 49°18' W 000°15'0 0.6
2017-Aug-15 14:00N 49°17' W 000°15'0 0.0
2017-Aug-15 13:30N 49°17' W 000°15'0 0.0
2017-Aug-15 13:00N 49°17' W 000°15'0 0.3
2017-Aug-15 12:30N 49°17' W 000°15'917.1
2017-Aug-15 12:00N 49°26' W 000°19'1018.8
2017-Aug-15 11:28N 49°34' W 000°27'2718.9
2017-Aug-15 10:03N 49°59' W 000°43'419.0
2017-Aug-15 09:49N 50°03' W 000°45'1119.1
2017-Aug-15 09:13N 50°14' W 000°51'419.2
2017-Aug-15 09:00N 50°18' W 000°53'1020.5
2017-Aug-15 08:30N 50°28' W 000°56'1021.0
2017-Aug-15 08:01N 50°38' W 000°59'918.1
2017-Aug-15 07:30N 50°46' W 001°06'2 4.9
2017-Aug-15 07:00N 50°49' W 001°06'0 0.0
2017-Aug-15 06:30N 50°49' W 001°06'0 0.0
2017-Aug-15 06:00N 50°49' W 001°06'0 0.1
2017-Aug-15 05:30N 50°49' W 001°06'3 6.6
2017-Aug-15 05:01N 50°45' W 001°05'714.7
2017-Aug-15 04:31N 50°39' W 000°58'714.5
2017-Aug-15 04:01N 50°33' W 000°55'714.6
2017-Aug-15 03:31N 50°26' W 000°50'714.4
2017-Aug-15 03:01N 50°19' W 000°45'815.3
2017-Aug-15 02:29N 50°12' W 000°41'815.6
2017-Aug-15 02:00N 50°05' W 000°38'612.5
2017-Aug-15 01:30N 49°59' W 000°34'510.8
2017-Aug-15 01:00N 49°54' W 000°32'510.7
2017-Aug-15 00:30N 49°49' W 000°29'510.7
2017-Aug-15 00:00N 49°44' W 000°27'611.0
2017-Aug-14 23:30N 49°38' W 000°25'610.9
2017-Aug-14 22:59N 49°33' W 000°22'511.2
2017-Aug-14 22:30N 49°28' W 000°19'611.3
2017-Aug-14 22:00N 49°23' W 000°16'510.2
2017-Aug-14 21:30N 49°18' W 000°15'0 0.5
2017-Aug-14 21:00N 49°17' W 000°15'0 0.0
2017-Aug-14 20:30N 49°17' W 000°15'0 0.0
2017-Aug-14 20:00N 49°17' W 000°15'0 0.0
2017-Aug-14 19:30N 49°17' W 000°15'3 6.2
2017-Aug-14 18:59N 49°21' W 000°15'1018.4
2017-Aug-14 18:28N 49°30' W 000°19'918.4
2017-Aug-14 18:00N 49°38' W 000°21'918.5
2017-Aug-14 17:30N 49°47' W 000°24'918.4
2017-Aug-14 17:01N 49°56' W 000°29'918.4
2017-Aug-14 16:30N 50°04' W 000°34'1019.0
2017-Aug-14 16:00N 50°13' W 000°40'1020.5
2017-Aug-14 15:30N 50°22' W 000°48'1020.7
2017-Aug-14 15:00N 50°31' W 000°55'1019.7
2017-Aug-14 14:30N 50°40' W 000°60'816.6
2017-Aug-14 14:00N 50°48' W 001°07'1 2.4
2017-Aug-14 13:30N 50°49' W 001°06'0 0.0
2017-Aug-14 13:00N 50°49' W 001°06'0 0.0
2017-Aug-14 12:30N 50°49' W 001°06'0 0.3
2017-Aug-14 12:00N 50°49' W 001°06'4 8.7
2017-Aug-14 11:30N 50°44' W 001°04'816.3
2017-Aug-14 11:00N 50°37' W 000°58'918.2
2017-Aug-14 10:30N 50°28' W 000°55'919.0
2017-Aug-14 10:01N 50°19' W 000°52'1019.3
2017-Aug-14 09:30N 50°10' W 000°48'1019.5
2017-Aug-14 09:00N 50°01' W 000°43'1220.5
2017-Aug-14 08:25N 49°49' W 000°36'921.6
2017-Aug-14 07:59N 49°41' W 000°30'1221.4
2017-Aug-14 07:26N 49°30' W 000°22'921.5
2017-Aug-14 07:00N 49°22' W 000°16'5 9.9
2017-Aug-14 06:31N 49°17' W 000°15'0 0.0
2017-Aug-14 06:01N 49°17' W 000°15'0 0.0
2017-Aug-14 05:31N 49°17' W 000°15'0 0.0
2017-Aug-14 05:00N 49°17' W 000°15'0 0.2
2017-Aug-14 04:30N 49°17' W 000°15'814.1
2017-Aug-14 03:54N 49°26' W 000°16'615.2
2017-Aug-14 03:30N 49°31' W 000°20'814.9
2017-Aug-14 02:59N 49°39' W 000°23'715.3
2017-Aug-14 02:30N 49°46' W 000°26'815.7
2017-Aug-14 02:00N 49°53' W 000°31'815.9
2017-Aug-14 01:31N 50°00' W 000°35'816.1
2017-Aug-14 01:01N 50°08' W 000°39'816.1
2017-Aug-14 00:31N 50°16' W 000°44'815.9
2017-Aug-14 00:01N 50°23' W 000°48'816.0
2017-Aug-13 23:31N 50°31' W 000°52'816.3
2017-Aug-13 23:01N 50°38' W 000°57'714.3
2017-Aug-13 22:31N 50°44' W 001°04'510.0
2017-Aug-13 22:01N 50°49' W 001°06'0 0.4
2017-Aug-13 21:31N 50°49' W 001°06'0 0.0
2017-Aug-13 21:01N 50°49' W 001°06'0 0.0
2017-Aug-13 20:30N 50°49' W 001°06'0 0.4
2017-Aug-13 20:01N 50°49' W 001°06'510.7
2017-Aug-13 19:30N 50°44' W 001°03'816.1
2017-Aug-13 19:01N 50°37' W 000°57'1019.0
2017-Aug-13 18:30N 50°28' W 000°52'919.0
2017-Aug-13 18:00N 50°19' W 000°47'1019.8
2017-Aug-13 17:30N 50°10' W 000°40'1019.7
2017-Aug-13 17:01N 50°01' W 000°34'1019.7
2017-Aug-13 16:30N 49°51' W 000°30'1019.8
2017-Aug-13 15:59N 49°41' W 000°25'1019.5
2017-Aug-13 15:30N 49°33' W 000°19'919.0
2017-Aug-13 15:00N 49°24' W 000°15'713.1
2017-Aug-13 14:30N 49°17' W 000°15'0 0.0
2017-Aug-13 14:00N 49°17' W 000°15'0 0.0
2017-Aug-13 13:30N 49°17' W 000°15'0 0.0
2017-Aug-13 13:00N 49°17' W 000°15'2 3.4
2017-Aug-13 12:23N 49°19' W 000°15'719.1
2017-Aug-13 12:00N 49°27' W 000°17'4719.7
2017-Aug-13 09:36N 50°10' W 000°45'319.9
2017-Aug-13 09:28N 50°13' W 000°47'919.7
2017-Aug-13 09:00N 50°21' W 000°52'1020.8
2017-Aug-13 08:31N 50°31' W 000°57'1020.4
2017-Aug-13 08:00N 50°41' W 000°58'816.6
2017-Aug-13 07:31N 50°47' W 001°07'2 3.0
2017-Aug-13 07:01N 50°49' W 001°06'0 0.0
2017-Aug-13 06:31N 50°49' W 001°06'0 0.0
2017-Aug-13 06:01N 50°49' W 001°06'0 0.2
2017-Aug-13 05:31N 50°49' W 001°06'4 7.4
2017-Aug-13 05:00N 50°45' W 001°05'815.3
2017-Aug-13 04:30N 50°39' W 000°59'612.5
2017-Aug-13 04:01N 50°33' W 000°54'611.7
2017-Aug-13 03:30N 50°28' W 000°51'3214.5
2017-Aug-13 01:20N 49°59' W 000°30'310.5
2017-Aug-13 01:00N 49°56' W 000°28'510.4
2017-Aug-13 00:30N 49°51' W 000°25'510.4
2017-Aug-13 00:01N 49°46' W 000°23'510.7
2017-Aug-12 23:31N 49°41' W 000°22'510.8
2017-Aug-12 23:00N 49°35' W 000°21'510.3
2017-Aug-12 22:30N 49°30' W 000°19'5 9.9
2017-Aug-12 22:01N 49°26' W 000°16'5 9.8
2017-Aug-12 21:31N 49°21' W 000°15'3 6.8
2017-Aug-12 21:01N 49°17' W 000°15'0 0.0
2017-Aug-12 20:31N 49°17' W 000°15'0 0.0
2017-Aug-12 20:01N 49°17' W 000°15'0 0.0
2017-Aug-12 19:31N 49°17' W 000°15'2 4.8
2017-Aug-12 19:00N 49°20' W 000°14'1018.9
2017-Aug-12 18:30N 49°29' W 000°17'1020.1
2017-Aug-12 18:00N 49°39' W 000°21'4619.2
2017-Aug-12 15:36N 50°22' W 000°45'218.9
2017-Aug-12 15:31N 50°24' W 000°47'918.3
2017-Aug-12 15:01N 50°32' W 000°53'917.7
2017-Aug-12 14:30N 50°40' W 000°59'816.9
2017-Aug-12 14:00N 50°47' W 001°06'2 3.5
2017-Aug-12 13:30N 50°49' W 001°06'0 0.0
2017-Aug-12 13:01N 50°49' W 001°06'0 0.0
2017-Aug-12 12:30N 50°49' W 001°06'0 0.2
2017-Aug-12 12:00N 50°49' W 001°06'5 9.9
2017-Aug-12 11:31N 50°44' W 001°03'1019.1
2017-Aug-12 11:01N 50°36' W 000°56'1019.8
2017-Aug-12 10:30N 50°26' W 000°52'3919.8
2017-Aug-12 08:31N 49°48' W 000°34'119.9
2017-Aug-12 08:28N 49°47' W 000°33'920.2
2017-Aug-12 08:00N 49°39' W 000°27'1020.1
2017-Aug-12 07:30N 49°30' W 000°20'1020.1
2017-Aug-12 07:01N 49°21' W 000°14'3 6.6
2017-Aug-12 06:30N 49°17' W 000°15'0 0.0
2017-Aug-12 06:01N 49°17' W 000°15'0 0.0
2017-Aug-12 05:31N 49°17' W 000°15'0 0.0
2017-Aug-12 05:00N 49°17' W 000°15'0 0.1
2017-Aug-12 04:31N 49°17' W 000°15'1111.5
2017-Aug-12 03:36N 49°28' W 000°16'112.3
2017-Aug-12 03:30N 49°29' W 000°16'715.0
2017-Aug-12 03:00N 49°36' W 000°19'5115.7
2017-Aug-11 23:44N 50°25' W 000°46'415.8
2017-Aug-11 23:31N 50°28' W 000°48'816.2
2017-Aug-11 23:01N 50°35' W 000°53'815.7
2017-Aug-11 22:31N 50°42' W 000°58'816.1
2017-Aug-11 22:00N 50°48' W 001°07'1 1.8
2017-Aug-11 21:30N 50°49' W 001°06'0 0.0
2017-Aug-11 21:00N 50°49' W 001°06'0 0.0
2017-Aug-11 20:30N 50°49' W 001°06'0 0.3
2017-Aug-11 20:00N 50°49' W 001°06'611.3
2017-Aug-11 19:31N 50°44' W 001°02'917.9
2017-Aug-11 19:00N 50°36' W 000°55'918.6
2017-Aug-11 18:30N 50°27' W 000°49'4719.0
2017-Aug-11 16:01N 49°43' W 000°23'220.9
2017-Aug-11 15:57N 49°42' W 000°23'1020.8
2017-Aug-11 15:27N 49°32' W 000°18'920.0
2017-Aug-11 15:00N 49°23' W 000°14'6 6.1
2017-Aug-11 14:00N 49°17' W 000°15'0 0.0
2017-Aug-11 13:30N 49°17' W 000°15'0 0.0
2017-Aug-11 13:00N 49°17' W 000°15'3 6.2
2017-Aug-11 12:30N 49°20' W 000°14'916.8
2017-Aug-11 11:59N 49°29' W 000°18'817.0
2017-Aug-11 11:30N 49°36' W 000°22'4519.2
2017-Aug-11 09:11N 50°18' W 000°47'319.9
2017-Aug-11 09:00N 50°21' W 000°49'1019.9
2017-Aug-11 08:31N 50°31' W 000°54'1019.6
2017-Aug-11 08:01N 50°40' W 000°59'816.8
2017-Aug-11 07:31N 50°47' W 001°06'2 3.3
2017-Aug-11 07:00N 50°49' W 001°06'0 0.0
2017-Aug-11 06:30N 50°49' W 001°06'0 0.0
2017-Aug-11 06:00N 50°49' W 001°06'0 0.1
2017-Aug-11 05:30N 50°49' W 001°06'5 9.5
2017-Aug-11 05:01N 50°44' W 001°04'713.5
2017-Aug-11 04:31N 50°39' W 000°58'612.1
2017-Aug-11 04:00N 50°33' W 000°54'611.6
2017-Aug-11 03:30N 50°28' W 000°50'713.4
2017-Aug-11 03:00N 50°22' W 000°45'1116.9
2017-Aug-11 02:23N 50°12' W 000°38'716.6
2017-Aug-11 01:57N 50°05' W 000°35'612.1
2017-Aug-11 01:29N 50°00' W 000°32'611.7
2017-Aug-11 01:00N 49°55' W 000°29'611.5
2017-Aug-11 00:29N 49°49' W 000°26'511.1
2017-Aug-10 23:59N 49°44' W 000°24'511.1
2017-Aug-10 23:30N 49°39' W 000°22'611.1
2017-Aug-10 22:58N 49°33' W 000°20'510.8
2017-Aug-10 22:30N 49°28' W 000°18'510.5
2017-Aug-10 22:00N 49°23' W 000°16'511.0
2017-Aug-10 21:30N 49°18' W 000°15'0 0.5
2017-Aug-10 21:00N 49°17' W 000°15'0 0.0
2017-Aug-10 20:30N 49°17' W 000°15'0 0.0
2017-Aug-10 20:00N 49°17' W 000°15'0 0.0
2017-Aug-10 19:30N 49°17' W 000°15'2 4.6
2017-Aug-10 19:00N 49°20' W 000°14'1019.1
2017-Aug-10 18:30N 49°29' W 000°19'1120.3
2017-Aug-10 17:59N 49°38' W 000°26'2019.7
2017-Aug-10 16:58N 49°56' W 000°40'817.7
2017-Aug-10 16:30N 50°04' W 000°45'2018.4
2017-Aug-10 15:25N 50°23' W 000°53'820.1
2017-Aug-10 15:00N 50°31' W 000°55'1020.0
2017-Aug-10 14:30N 50°41' W 001°00'816.4
2017-Aug-10 14:00N 50°48' W 001°07'1 2.2
2017-Aug-10 13:31N 50°49' W 001°06'0 0.0
2017-Aug-10 13:00N 50°49' W 001°06'0 0.0
2017-Aug-10 12:31N 50°49' W 001°06'1 1.7
2017-Aug-10 12:00N 50°48' W 001°07'815.0
2017-Aug-10 11:31N 50°42' W 001°01'1019.8
2017-Aug-10 11:00N 50°32' W 000°55'1019.6
2017-Aug-10 10:29N 50°23' W 000°49'3519.0
2017-Aug-10 08:39N 49°50' W 000°32'518.2
2017-Aug-10 08:21N 49°44' W 000°29'618.2
2017-Aug-10 08:01N 49°39' W 000°25'918.3
2017-Aug-10 07:29N 49°30' W 000°20'918.9
2017-Aug-10 07:00N 49°22' W 000°15'4 8.3
2017-Aug-10 06:30N 49°17' W 000°15'0 0.0
2017-Aug-10 06:01N 49°17' W 000°15'0 0.0
2017-Aug-10 05:30N 49°17' W 000°15'0 0.0
2017-Aug-10 05:01N 49°17' W 000°15'0 0.3
2017-Aug-10 04:30N 49°17' W 000°15'713.8
2017-Aug-10 04:00N 49°24' W 000°16'714.9
2017-Aug-10 03:30N 49°31' W 000°20'612.1
2017-Aug-10 03:00N 49°37' W 000°23'510.1
2017-Aug-10 02:30N 49°42' W 000°26'610.3
2017-Aug-10 01:55N 49°48' W 000°28'3813.6
2017-Aug-09 23:09N 50°23' W 000°47'216.3
2017-Aug-09 23:00N 50°25' W 000°48'816.7
2017-Aug-09 22:30N 50°33' W 000°54'816.3
2017-Aug-09 22:01N 50°41' W 000°58'613.0
2017-Aug-09 21:30N 50°45' W 001°05'3 6.7
2017-Aug-09 21:00N 50°49' W 001°06'0 0.0
2017-Aug-09 20:30N 50°49' W 001°06'0 0.0
2017-Aug-09 20:00N 50°49' W 001°06'0 0.0
2017-Aug-09 19:30N 50°49' W 001°06'0 0.0
2017-Aug-09 19:01N 50°49' W 001°06'0 0.0
2017-Aug-09 18:30N 50°49' W 001°06'0 1.0
2017-Aug-09 18:01N 50°49' W 001°07'612.4
2017-Aug-09 17:30N 50°43' W 001°01'816.7
2017-Aug-09 17:01N 50°35' W 000°58'917.9
2017-Aug-09 16:31N 50°27' W 000°53'4816.9
2017-Aug-09 13:38N 49°42' W 000°24'416.4
2017-Aug-09 13:25N 49°39' W 000°22'1016.1
2017-Aug-09 12:49N 49°29' W 000°19'515.7
2017-Aug-09 12:30N 49°25' W 000°17'714.7
2017-Aug-09 12:01N 49°18' W 000°15'0 0.4
2017-Aug-09 11:31N 49°17' W 000°15'0 0.0
2017-Aug-09 11:01N 49°17' W 000°15'0 0.0
2017-Aug-09 10:30N 49°17' W 000°15'0 0.0
2017-Aug-09 10:01N 49°17' W 000°15'0 0.0
2017-Aug-09 09:31N 49°17' W 000°15'0 0.0
2017-Aug-09 09:01N 49°17' W 000°15'0 0.0
2017-Aug-09 08:31N 49°17' W 000°15'0 0.0
2017-Aug-09 08:01N 49°17' W 000°15'0 0.0
2017-Aug-09 07:31N 49°17' W 000°15'0 0.0
2017-Aug-09 07:01N 49°17' W 000°15'0 0.0
2017-Aug-09 06:30N 49°17' W 000°15'0 0.0
2017-Aug-09 06:01N 49°17' W 000°15'0 0.0
2017-Aug-09 05:30N 49°17' W 000°15'2 3.9
2017-Aug-09 05:00N 49°19' W 000°15'711.9
2017-Aug-09 04:25N 49°26' W 000°16'511.2
2017-Aug-09 04:01N 49°31' W 000°18'714.6
2017-Aug-09 03:30N 49°37' W 000°23'4514.3
2017-Aug-09 00:20N 50°20' W 000°48'515.4
2017-Aug-09 00:00N 50°25' W 000°51'815.5
2017-Aug-08 23:30N 50°32' W 000°55'815.1
2017-Aug-08 23:01N 50°39' W 000°59'714.5
2017-Aug-08 22:30N 50°45' W 001°05'4 7.5
2017-Aug-08 22:00N 50°49' W 001°06'0 0.0
2017-Aug-08 21:30N 50°49' W 001°06'0 0.0
2017-Aug-08 21:00N 50°49' W 001°06'0 0.0
2017-Aug-08 20:30N 50°49' W 001°06'0 0.8
2017-Aug-08 20:00N 50°49' W 001°06'611.5
2017-Aug-08 19:30N 50°44' W 001°02'917.6
2017-Aug-08 19:00N 50°35' W 000°58'5718.9
2017-Aug-08 15:59N 49°41' W 000°29'919.0
2017-Aug-08 15:30N 49°33' W 000°23'1020.0
2017-Aug-08 15:00N 49°24' W 000°17'713.3
2017-Aug-08 14:30N 49°17' W 000°15'0 0.0
2017-Aug-08 14:00N 49°17' W 000°15'0 0.0
2017-Aug-08 13:30N 49°17' W 000°15'0 0.0
2017-Aug-08 13:00N 49°17' W 000°15'2 3.8
2017-Aug-08 12:30N 49°19' W 000°15'1019.9
2017-Aug-08 11:59N 49°29' W 000°18'  

Dump ship's entire track history